Time;durP1;ratioP1;P1;durP2;ratioP2;P2;SDS_P1;SDS_P2;PMS_P1;PMS_P2;Temp;Humidity;BMP_temperature;BMP_pressure;BME280_temperature;BME280_humidity;BME280_pressure;Samples;Min_cycle;Max_cycle;Signal;HPM_P1;HPM_P2
2021/03/07 00:01:25;;;;;;;7.75;6.95;;;25.00;99.90;;;;;;5074505;28;20029;-65
2021/03/07 00:03:53;;;;;;;8.95;7.03;;;25.40;99.90;;;;;;5074455;28;20020;-65
2021/03/07 00:06:20;;;;;;;9.60;6.63;;;25.70;99.90;;;;;;5074478;28;20048;-69
2021/03/07 00:08:47;;;;;;;7.13;6.38;;;25.90;99.90;;;;;;5074454;28;20018;-64
2021/03/07 00:11:15;;;;;;;11.18;7.13;;;26.00;99.90;;;;;;5073690;28;20033;-62
2021/03/07 00:13:42;;;;;;;11.05;7.40;;;25.40;99.90;;;;;;5074291;28;20166;-63
2021/03/07 00:16:09;;;;;;;7.10;5.88;;;25.10;99.90;;;;;;5074200;28;20112;-60
2021/03/07 00:18:37;;;;;;;7.97;6.00;;;24.80;99.90;;;;;;5074259;28;20489;-61
2021/03/07 00:21:04;;;;;;;8.57;6.88;;;25.20;99.90;;;;;;5074022;28;20052;-63
2021/03/07 00:23:31;;;;;;;8.82;6.50;;;25.60;99.90;;;;;;5074086;28;20020;-65
2021/03/07 00:25:59;;;;;;;7.57;6.22;;;25.70;99.90;;;;;;5074758;28;20029;-65
2021/03/07 00:28:26;;;;;;;8.40;6.82;;;25.60;99.90;;;;;;5074042;28;20031;-63
2021/03/07 00:30:54;;;;;;;8.13;6.95;;;25.50;99.90;;;;;;5073886;28;20020;-70
2021/03/07 00:33:21;;;;;;;10.35;7.03;;;25.50;99.90;;;;;;5073816;28;20028;-66
2021/03/07 00:35:48;;;;;;;8.30;6.75;;;25.20;99.90;;;;;;5073306;28;20025;-67
2021/03/07 00:38:16;;;;;;;7.90;6.93;;;25.30;99.90;;;;;;5073495;28;20095;-63
2021/03/07 00:40:43;;;;;;;12.75;6.97;;;25.60;99.90;;;;;;5073499;28;20049;-63
2021/03/07 00:43:10;;;;;;;7.72;6.88;;;25.30;99.90;;;;;;5073589;28;20020;-63
2021/03/07 00:45:38;;;;;;;8.55;7.18;;;24.90;99.90;;;;;;5073632;28;20081;-61
2021/03/07 00:48:06;;;;;;;10.57;6.60;;;25.00;99.90;;;;;;5074175;28;20358;-61
2021/03/07 00:50:33;;;;;;;10.10;7.47;;;25.20;99.90;;;;;;5074371;28;20483;-61
2021/03/07 00:53:01;;;;;;;10.23;7.25;;;25.60;99.90;;;;;;5073549;28;20017;-61
2021/03/07 00:55:28;;;;;;;8.85;6.95;;;25.40;99.90;;;;;;5073622;28;20247;-59
2021/03/07 00:57:56;;;;;;;9.25;6.18;;;25.30;99.90;;;;;;5073634;28;20020;-63
2021/03/07 01:00:26;;;;;;;11.32;6.93;;;25.30;99.90;;;;;;5073670;28;20016;-60
2021/03/07 01:02:53;;;;;;;;;;;25.20;99.90;;;;;;5073881;28;20020;-67
2021/03/07 01:05:21;;;;;;;11.38;7.00;;;25.20;99.90;;;;;;5073777;28;19931;-64
2021/03/07 01:07:48;;;;;;;8.35;6.68;;;25.70;99.90;;;;;;5073427;28;20036;-63
2021/03/07 01:10:20;;;;;;;8.98;6.75;;;25.90;99.90;;;;;;5073458;28;20029;-63
2021/03/07 01:12:51;;;;;;;7.30;6.50;;;26.10;99.90;;;;;;5073813;28;20020;-63
2021/03/07 01:15:26;;;;;;;10.75;7.68;;;25.90;99.90;;;;;;5073516;28;20029;-63
2021/03/07 01:17:53;;;;;;;10.82;7.82;;;25.70;99.90;;;;;;5073434;28;20083;-63
2021/03/07 01:20:21;;;;;;;11.05;7.53;;;25.50;99.90;;;;;;5073262;28;20477;-62
2021/03/07 01:22:49;;;;;;;9.27;6.82;;;25.90;99.90;;;;;;5073344;28;20032;-63
2021/03/07 01:25:22;;;;;;;11.30;7.35;;;25.80;99.90;;;;;;5073625;28;20029;-60
2021/03/07 01:27:50;;;;;;;8.48;7.38;;;25.80;99.90;;;;;;5073196;28;20032;-61
2021/03/07 01:30:19;;;;;;;9.80;7.60;;;25.70;99.90;;;;;;5073106;28;20021;-62
2021/03/07 01:32:47;;;;;;;9.60;7.10;;;25.70;99.90;;;;;;5073791;28;20028;-62
2021/03/07 01:35:15;;;;;;;10.43;7.07;;;25.80;99.90;;;;;;5073028;28;20055;-63
2021/03/07 01:37:42;;;;;;;9.82;6.90;;;25.90;99.90;;;;;;5073370;28;20017;-62
2021/03/07 01:40:16;;;;;;;8.77;7.20;;;25.90;99.90;;;;;;5073831;28;20021;-62
2021/03/07 01:42:51;;;;;;;8.10;6.40;;;25.90;99.90;;;;;;5073027;28;20564;-62
2021/03/07 01:45:22;;;;;;;7.22;6.57;;;25.80;99.90;;;;;;5073390;28;20047;-59
2021/03/07 01:47:54;;;;;;;10.48;7.05;;;25.50;99.90;;;;;;5073040;28;20074;-59
2021/03/07 01:50:23;;;;;;;11.00;6.97;;;25.20;99.90;;;;;;5077346;28;20103;-59
2021/03/07 01:52:53;;;;;;;9.63;6.60;;;25.20;99.90;;;;;;5075803;28;20024;-58
2021/03/07 01:55:25;;;;;;;8.43;6.80;;;25.20;99.90;;;;;;5077847;28;20024;-59
2021/03/07 01:58:18;;;;;;;10.93;7.38;;;25.20;99.90;;;;;;5076070;28;20058;-58
2021/03/07 02:00:47;;;;;;;9.82;7.55;;;25.40;99.90;;;;;;5077486;28;20032;-59
2021/03/07 02:03:14;;;;;;;11.73;7.90;;;25.40;99.90;;;;;;5076922;28;20453;-58
2021/03/07 02:05:43;;;;;;;8.48;7.00;;;26.00;99.90;;;;;;5076663;28;20029;-58
2021/03/07 02:08:11;;;;;;;10.50;7.20;;;26.50;99.90;;;;;;5076793;28;20153;-58
2021/03/07 02:10:41;;;;;;;9.32;6.57;;;26.70;99.90;;;;;;5077186;28;20111;-58
2021/03/07 02:13:17;;;;;;;9.77;7.63;;;26.30;99.90;;;;;;5076866;28;20426;-58
2021/03/07 02:15:54;;;;;;;10.80;7.20;;;26.60;99.90;;;;;;5076561;28;20027;-54
2021/03/07 02:18:21;;;;;;;8.73;7.40;;;26.70;99.90;;;;;;5076527;28;20398;-56
2021/03/07 02:21:19;;;;;;;8.25;7.40;;;26.90;99.90;;;;;;5076514;28;20111;-54
2021/03/07 02:24:04;;;;;;;8.30;6.85;;;27.00;99.90;;;;;;5076570;28;20508;-56
2021/03/07 02:26:51;;;;;;;9.18;7.50;;;27.10;99.90;;;;;;5076305;28;20052;-55
2021/03/07 02:29:22;;;;;;;8.80;6.90;;;26.70;99.90;;;;;;5076315;28;20541;-60
2021/03/07 02:31:51;;;;;;;;;;;26.50;99.90;;;;;;5076582;28;20031;-59
2021/03/07 02:34:28;;;;;;;9.60;7.60;;;26.40;99.90;;;;;;5076124;28;19955;-58
2021/03/07 02:36:59;;;;;;;10.75;6.78;;;26.30;99.90;;;;;;5076281;28;20377;-59
2021/03/07 02:39:32;;;;;;;10.45;7.47;;;26.70;99.90;;;;;;5076440;28;20035;-61
2021/03/07 02:42:28;;;;;;;10.88;7.28;;;27.00;99.90;;;;;;5075010;28;20119;-61
2021/03/07 02:44:59;;;;;;;9.32;6.78;;;27.00;99.90;;;;;;5073490;28;20041;-58
2021/03/07 02:47:30;;;;;;;9.45;7.00;;;27.00;99.90;;;;;;5074865;28;20032;-56
2021/03/07 02:50:06;;;;;;;9.68;6.63;;;27.10;99.90;;;;;;5075095;28;20100;-57
2021/03/07 02:52:34;;;;;;;11.65;6.25;;;27.20;99.90;;;;;;5075038;28;20099;-57
2021/03/07 02:55:03;;;;;;;10.05;6.90;;;27.20;99.90;;;;;;5074673;28;20025;-58
2021/03/07 02:57:33;;;;;;;10.77;7.20;;;27.10;99.90;;;;;;5074700;28;20099;-58
2021/03/07 03:00:04;;;;;;;7.93;6.87;;;27.20;99.90;;;;;;5075101;28;20032;-58
2021/03/07 03:02:32;;;;;;;12.27;6.93;;;27.10;99.90;;;;;;5074933;28;20025;-56
2021/03/07 03:05:00;;;;;;;10.27;6.85;;;26.80;99.90;;;;;;5074476;28;20017;-56
2021/03/07 03:07:29;;;;;;;10.90;6.80;;;26.70;99.90;;;;;;5074771;28;20020;-57
2021/03/07 03:09:57;;;;;;;7.68;6.38;;;26.90;99.90;;;;;;5074441;28;20070;-56
2021/03/07 03:12:29;;;;;;;8.30;6.15;;;26.80;99.90;;;;;;5074530;28;20020;-58
2021/03/07 03:14:57;;;;;;;10.38;6.10;;;27.00;99.90;;;;;;5073001;28;20024;-57
2021/03/07 03:17:26;;;;;;;10.27;7.30;;;27.30;99.90;;;;;;5074520;28;20027;-58
2021/03/07 03:19:55;;;;;;;9.27;6.03;;;27.30;99.90;;;;;;5074409;28;20024;-58
2021/03/07 03:22:23;;;;;;;9.38;6.47;;;27.40;99.90;;;;;;5074385;28;20017;-58
2021/03/07 03:24:50;;;;;;;11.52;7.30;;;27.40;99.90;;;;;;5074268;28;20426;-57
2021/03/07 03:27:18;;;;;;;9.73;6.95;;;27.10;99.90;;;;;;5074354;28;20017;-57
2021/03/07 03:29:45;;;;;;;11.65;7.50;;;27.20;99.90;;;;;;5074220;28;20123;-57
2021/03/07 03:32:13;;;;;;;9.90;7.07;;;27.20;99.90;;;;;;5074316;28;20377;-57
2021/03/07 03:34:40;;;;;;;12.05;7.32;;;27.30;99.90;;;;;;5074548;28;20023;-58
2021/03/07 03:37:08;;;;;;;9.70;6.80;;;27.40;99.90;;;;;;5074072;28;20024;-59
2021/03/07 03:39:38;;;;;;;10.40;7.20;;;27.50;99.90;;;;;;5073948;28;20020;-58
2021/03/07 03:42:07;;;;;;;8.23;6.57;;;27.70;99.90;;;;;;4992099;28;2352072;-58
2021/03/07 03:44:39;;;;;;;9.13;6.32;;;27.60;99.90;;;;;;5074846;28;20111;-58
2021/03/07 03:47:12;;;;;;;10.52;6.40;;;27.30;99.90;;;;;;5075152;28;20078;-57
2021/03/07 03:49:47;;;;;;;8.50;6.05;;;27.30;99.90;;;;;;5074902;28;20025;-57
2021/03/07 03:52:17;;;;;;;9.93;6.15;;;27.30;99.90;;;;;;5074938;28;20056;-60
2021/03/07 03:54:48;;;;;;;10.52;6.35;;;27.20;99.90;;;;;;5074667;28;20035;-59
2021/03/07 03:57:18;;;;;;;7.85;6.22;;;27.30;99.90;;;;;;5074651;28;20124;-59
2021/03/07 03:59:48;;;;;;;9.68;6.03;;;27.30;99.90;;;;;;5074644;28;20021;-59
2021/03/07 04:02:16;;;;;;;6.68;5.88;;;27.20;99.90;;;;;;5074457;28;20044;-59
2021/03/07 04:04:46;;;;;;;11.27;6.40;;;26.90;99.90;;;;;;5074393;28;20028;-58
2021/03/07 04:07:14;;;;;;;9.00;5.88;;;27.10;99.90;;;;;;5074557;28;20048;-58
2021/03/07 04:09:42;;;;;;;8.43;6.38;;;27.00;99.90;;;;;;5074545;28;20021;-58
2021/03/07 04:12:10;;;;;;;10.68;6.57;;;27.00;99.90;;;;;;5073497;28;20033;-58
2021/03/07 04:14:37;;;;;;;8.35;6.68;;;26.80;99.90;;;;;;5073111;28;20381;-58
2021/03/07 04:17:05;;;;;;;12.57;7.30;;;26.70;99.90;;;;;;5074790;28;20024;-58
2021/03/07 04:19:34;;;;;;;11.10;6.47;;;26.60;99.90;;;;;;5074336;28;20021;-58
2021/03/07 04:22:02;;;;;;;10.50;6.82;;;26.80;99.90;;;;;;5074166;28;20036;-59
2021/03/07 04:24:29;;;;;;;10.05;7.30;;;26.60;99.90;;;;;;5074212;28;20384;-58
2021/03/07 04:26:57;;;;;;;7.47;6.65;;;26.50;99.90;;;;;;5074105;28;20021;-59
2021/03/07 04:29:25;;;;;;;9.40;6.93;;;26.70;99.90;;;;;;5074082;28;20512;-58
2021/03/07 04:31:56;;;;;;;13.48;6.45;;;26.90;99.90;;;;;;5073941;28;20025;-58
2021/03/07 04:34:24;;;;;;;14.18;6.38;;;26.80;99.90;;;;;;5074108;28;20017;-59
2021/03/07 04:36:53;;;;;;;9.98;6.07;;;26.90;99.90;;;;;;5073780;28;20056;-59
2021/03/07 04:39:21;;;;;;;10.38;6.40;;;27.10;99.90;;;;;;5072737;28;20021;-59
2021/03/07 04:41:48;;;;;;;11.38;6.32;;;27.10;99.90;;;;;;5073668;28;20056;-58
2021/03/07 04:44:16;;;;;;;10.50;5.90;;;27.10;99.90;;;;;;5073857;28;20432;-58
2021/03/07 04:46:44;;;;;;;11.98;6.25;;;27.10;99.90;;;;;;5073816;28;20028;-58
2021/03/07 04:49:11;;;;;;;10.32;5.85;;;26.80;99.90;;;;;;5073662;28;20571;-58
2021/03/07 04:51:38;;;;;;;9.20;5.65;;;26.60;99.90;;;;;;5073736;28;20024;-59
2021/03/07 04:54:06;;;;;;;8.55;6.15;;;26.70;99.90;;;;;;5072309;28;20393;-58
2021/03/07 04:56:35;;;;;;;8.80;6.25;;;26.60;99.90;;;;;;5073446;28;20025;-60
2021/03/07 04:59:02;;;;;;;11.88;6.10;;;26.80;99.90;;;;;;5073604;28;20377;-58
2021/03/07 05:01:29;;;;;;;9.20;5.93;;;26.80;99.90;;;;;;5073485;28;20029;-58
2021/03/07 05:03:57;;;;;;;12.07;6.97;;;26.90;99.90;;;;;;5073485;28;20016;-59
2021/03/07 05:06:27;;;;;;;10.75;6.30;;;26.70;99.90;;;;;;5073516;28;20025;-59
2021/03/07 05:08:54;;;;;;;9.98;6.70;;;26.90;99.90;;;;;;5073273;28;20025;-59
2021/03/07 05:11:22;;;;;;;11.25;6.72;;;26.80;99.90;;;;;;5073287;28;20476;-59
2021/03/07 05:13:50;;;;;;;11.32;6.50;;;26.80;99.90;;;;;;5073376;28;20031;-59
2021/03/07 05:16:18;;;;;;;9.75;6.95;;;26.70;99.90;;;;;;5073718;28;20499;-58
2021/03/07 05:18:45;;;;;;;9.18;7.13;;;26.70;99.90;;;;;;5073707;28;20067;-60
2021/03/07 05:21:13;;;;;;;13.23;6.95;;;26.70;99.90;;;;;;5073894;28;20043;-59
2021/03/07 05:23:40;;;;;;;11.02;6.85;;;26.60;99.90;;;;;;5073467;28;20094;-58
2021/03/07 05:26:08;;;;;;;7.82;7.03;;;26.50;99.90;;;;;;5073621;28;20035;-59
2021/03/07 05:28:36;;;;;;;10.18;6.38;;;26.60;99.90;;;;;;5073334;28;20024;-59
2021/03/07 05:31:04;;;;;;;7.40;6.22;;;26.70;99.90;;;;;;5073252;28;20024;-59
2021/03/07 05:33:31;;;;;;;6.90;6.20;;;26.60;99.90;;;;;;5071880;28;20385;-58
2021/03/07 05:36:00;;;;;;;8.77;6.50;;;26.60;99.90;;;;;;5071801;28;20532;-59
2021/03/07 05:38:28;;;;;;;8.32;6.35;;;26.40;99.90;;;;;;5073100;28;20469;-59
2021/03/07 05:40:55;;;;;;;8.02;5.65;;;26.20;99.90;;;;;;5072983;28;20045;-59
2021/03/07 05:43:25;;;;;;;10.07;5.63;;;26.20;99.90;;;;;;5073074;28;20146;-59
2021/03/07 05:45:52;;;;;;;9.35;6.03;;;26.10;99.90;;;;;;5073050;28;20081;-60
2021/03/07 05:48:20;;;;;;;9.02;5.95;;;26.20;99.90;;;;;;5071899;28;20029;-59
2021/03/07 05:50:47;;;;;;;9.40;6.20;;;26.20;99.90;;;;;;5072814;28;20020;-60
2021/03/07 05:53:15;;;;;;;10.77;5.97;;;26.20;99.90;;;;;;5072963;28;20330;-59
2021/03/07 05:55:43;;;;;;;7.68;6.43;;;26.20;99.90;;;;;;5073012;28;20104;-60
2021/03/07 05:58:15;;;;;;;8.32;6.22;;;26.20;99.90;;;;;;5072915;28;20115;-61
2021/03/07 06:00:42;;;;;;;7.60;6.00;;;26.20;99.90;;;;;;5073010;28;20023;-57
2021/03/07 06:03:10;;;;;;;7.60;5.80;;;25.80;99.90;;;;;;5072912;28;20056;-62
2021/03/07 06:05:38;;;;;;;12.07;6.10;;;26.00;99.90;;;;;;5071589;28;20027;-60
2021/03/07 06:08:05;;;;;;;8.38;6.22;;;26.10;99.90;;;;;;5073075;28;20021;-61
2021/03/07 06:10:33;;;;;;;9.20;6.50;;;26.00;99.90;;;;;;5073100;28;20028;-62
2021/03/07 06:13:10;;;;;;;9.88;6.68;;;25.90;99.90;;;;;;5073052;28;20021;-60
2021/03/07 06:15:43;;;;;;;8.23;5.53;;;25.80;99.90;;;;;;5072912;28;20059;-59
2021/03/07 06:18:15;;;;;;;10.13;6.03;;;25.70;99.90;;;;;;5072766;28;20533;-61
2021/03/07 06:20:45;;;;;;;9.15;5.40;;;26.00;99.90;;;;;;5072710;28;20020;-60
2021/03/07 06:23:12;;;;;;;6.72;6.00;;;26.00;99.90;;;;;;5072718;28;20099;-59
2021/03/07 06:25:53;;;;;;;10.50;5.95;;;26.60;99.90;;;;;;5073058;28;20029;-58
2021/03/07 06:28:28;;;;;;;9.70;6.13;;;27.40;99.90;;;;;;5072601;28;20047;-59
2021/03/07 06:30:56;;;;;;;10.23;6.88;;;28.50;99.50;;;;;;5072606;28;20516;-59
2021/03/07 06:33:35;;;;;;;7.18;6.35;;;29.20;99.10;;;;;;5072653;28;20387;-67
2021/03/07 06:36:20;;;;;;;7.88;6.22;;;29.50;98.40;;;;;;5075841;28;20043;-58
2021/03/07 06:38:57;;;;;;;7.28;6.30;;;29.80;98.30;;;;;;5076443;28;20457;-58
2021/03/07 06:41:35;;;;;;;11.77;6.95;;;30.00;97.60;;;;;;5076148;28;20052;-58
2021/03/07 06:44:14;;;;;;;8.35;6.68;;;29.70;97.50;;;;;;5076217;28;20065;-58
2021/03/07 06:46:47;;;;;;;10.07;6.93;;;29.40;98.00;;;;;;5075760;28;20032;-60
2021/03/07 06:49:41;;;;;;;11.90;7.32;;;29.50;97.80;;;;;;5074718;28;20523;-60
2021/03/07 06:52:17;;;;;;;7.95;6.50;;;29.40;97.90;;;;;;5073554;28;20045;-59
2021/03/07 06:55:12;;;;;;;10.02;7.30;;;29.90;97.60;;;;;;5076103;28;20039;-57
2021/03/07 06:57:39;;;;;;;9.70;6.80;;;29.80;97.60;;;;;;5075745;28;20024;-59
2021/03/07 07:00:07;;;;;;;7.22;6.30;;;28.40;98.50;;;;;;5075774;28;20046;-58
2021/03/07 07:02:35;;;;;;;11.45;6.38;;;28.10;99.10;;;;;;5074352;28;20404;-58
2021/03/07 07:05:03;;;;;;;10.45;5.97;;;28.10;99.50;;;;;;5074354;28;20029;-57
2021/03/07 07:07:30;;;;;;;9.35;6.15;;;27.40;99.90;;;;;;5075536;28;20017;-58
2021/03/07 07:10:00;;;;;;;8.38;6.38;;;27.90;99.90;;;;;;5075540;28;20021;-63
2021/03/07 07:12:29;;;;;;;6.45;5.75;;;28.30;99.40;;;;;;5075948;28;20115;-58
2021/03/07 07:15:14;;;;;;;10.77;7.07;;;28.50;99.50;;;;;;5075336;28;20051;-59
2021/03/07 07:17:42;;;;;;;8.77;5.93;;;28.90;98.80;;;;;;5075703;28;20017;-56
2021/03/07 07:20:12;;;;;;;11.10;7.07;;;28.20;99.30;;;;;;5075338;28;20017;-59
2021/03/07 07:22:39;;;;;;;8.55;6.53;;;27.30;99.90;;;;;;5075125;28;20132;-59
2021/03/07 07:25:07;;;;;;;8.40;6.60;;;26.20;99.90;;;;;;5075493;28;20028;-59
2021/03/07 07:27:35;;;;;;;11.35;7.57;;;25.50;99.90;;;;;;5074411;28;20451;-58
2021/03/07 07:30:04;;;;;;;11.35;7.47;;;25.10;99.90;;;;;;5073900;28;20056;-57
2021/03/07 07:32:31;;;;;;;8.57;6.65;;;24.80;99.90;;;;;;5075525;28;20365;-57
2021/03/07 07:35:03;;;;;;;13.43;8.20;;;24.40;99.90;;;;;;5075540;28;20025;-60
2021/03/07 07:37:46;;;;;;;10.30;7.40;;;24.30;99.90;;;;;;5074961;28;20028;-58
2021/03/07 07:40:14;;;;;;;11.88;7.20;;;24.20;99.90;;;;;;5074833;28;20074;-59
2021/03/07 07:42:55;;;;;;;10.48;7.35;;;24.10;99.90;;;;;;5075307;28;20012;-59
2021/03/07 07:45:23;;;;;;;14.02;7.57;;;23.90;99.90;;;;;;5074446;28;20140;-59
2021/03/07 07:47:52;;;;;;;9.88;7.15;;;23.60;99.90;;;;;;5074233;28;20420;-59
2021/03/07 07:50:29;;;;;;;10.30;7.20;;;23.40;99.90;;;;;;5074609;28;20542;-57
2021/03/07 07:53:03;;;;;;;11.35;7.15;;;23.20;99.90;;;;;;5074976;28;20017;-59
2021/03/07 07:55:44;;;;;;;10.25;7.53;;;23.20;99.90;;;;;;5075358;28;20025;-59
2021/03/07 07:58:31;;;;;;;11.32;7.90;;;23.10;99.90;;;;;;5073323;28;20034;-57
2021/03/07 08:00:59;;;;;;;10.57;8.10;;;23.10;99.90;;;;;;5074781;28;20082;-60
2021/03/07 08:03:36;;;;;;;11.82;8.02;;;22.90;99.90;;;;;;5074390;28;20541;-56
2021/03/07 08:06:08;;;;;;;13.40;8.70;;;22.90;99.90;;;;;;5074719;28;20052;-59
2021/03/07 08:08:39;;;;;;;11.65;8.43;;;22.80;99.90;;;;;;5074759;28;20047;-58
2021/03/07 08:11:08;;;;;;;12.48;8.45;;;22.80;99.90;;;;;;5074222;28;20063;-55
2021/03/07 08:13:35;;;;;;;12.68;8.45;;;22.80;99.90;;;;;;5074327;28;20053;-56
2021/03/07 08:16:04;;;;;;;15.48;8.23;;;22.70;99.90;;;;;;5073047;28;20411;-56
2021/03/07 08:19:04;;;;;;;14.68;9.27;;;22.60;99.90;;;;;;5074113;28;20020;-56
2021/03/07 08:21:59;;;;;;;12.23;9.05;;;22.50;99.90;;;;;;5030101;28;20150;-56
2021/03/07 08:24:52;;;;;;;15.30;9.98;;;22.40;99.90;;;;;;5074054;28;20028;-51
2021/03/07 08:27:41;;;;;;;11.45;8.30;;;22.30;99.90;;;;;;5074588;28;20016;-53
2021/03/07 08:30:10;;;;;;;10.15;8.15;;;22.40;99.90;;;;;;5074620;28;20024;-57
2021/03/07 08:32:40;;;;;;;9.25;8.00;;;22.40;99.90;;;;;;5073943;28;20017;-53
2021/03/07 08:35:22;;;;;;;11.43;8.48;;;22.40;99.90;;;;;;5073940;28;20016;-53
2021/03/07 08:38:21;;;;;;;10.13;8.32;;;22.40;99.90;;;;;;5073911;28;20056;-53
2021/03/07 08:40:58;;;;;;;9.13;8.32;;;22.30;99.90;;;;;;5040386;28;20048;-54
2021/03/07 08:43:25;;;;;;;13.18;8.80;;;22.30;99.90;;;;;;5072496;28;20035;-56
2021/03/07 08:46:13;;;;;;;10.85;8.77;;;22.30;99.90;;;;;;5073681;28;20099;-52
2021/03/07 08:48:42;;;;;;;12.73;8.80;;;22.20;99.90;;;;;;5073714;28;20128;-57
2021/03/07 08:51:11;;;;;;;10.07;9.07;;;22.20;99.90;;;;;;5073605;28;20028;-55
2021/03/07 08:53:40;;;;;;;11.35;9.13;;;22.20;99.90;;;;;;5073682;28;20426;-55
2021/03/07 08:56:09;;;;;;;10.67;9.13;;;22.10;99.90;;;;;;5073577;28;20465;-53
2021/03/07 08:58:38;;;;;;;12.45;8.43;;;22.20;99.90;;;;;;5073084;28;20025;-56
2021/03/07 09:01:07;;;;;;;9.35;8.45;;;22.20;99.90;;;;;;5073439;28;20021;-53
2021/03/07 09:03:34;;;;;;;12.00;9.85;;;22.20;99.90;;;;;;5073867;28;20027;-54
2021/03/07 09:06:13;;;;;;;11.80;9.20;;;22.10;99.90;;;;;;5073294;28;20069;-55
2021/03/07 09:08:40;;;;;;;12.65;9.05;;;22.20;99.90;;;;;;5073461;28;20021;-52
2021/03/07 09:11:10;;;;;;;11.02;10.02;;;22.10;99.90;;;;;;5073259;28;20070;-55
2021/03/07 09:13:48;;;;;;;15.93;10.45;;;22.00;99.90;;;;;;5073312;28;20048;-55
2021/03/07 09:16:17;;;;;;;11.25;10.10;;;22.00;99.90;;;;;;5073276;28;20117;-54
2021/03/07 09:18:44;;;;;;;10.90;9.90;;;22.10;99.90;;;;;;5073328;28;20013;-55
2021/03/07 09:21:15;;;;;;;11.85;10.10;;;22.10;99.90;;;;;;5073432;28;20051;-53
2021/03/07 09:23:49;;;;;;;12.00;10.85;;;22.10;99.90;;;;;;5073409;28;20025;-53
2021/03/07 09:26:21;;;;;;;13.43;11.80;;;22.10;99.90;;;;;;5073213;28;20028;-54
2021/03/07 09:28:53;;;;;;;12.45;11.23;;;22.00;99.90;;;;;;5073218;28;20051;-50
2021/03/07 09:31:21;;;;;;;12.18;11.07;;;22.00;99.90;;;;;;5072781;28;20047;-55
2021/03/07 09:33:59;;;;;;;15.07;12.32;;;22.00;99.90;;;;;;5072903;28;20028;-54
2021/03/07 09:36:28;;;;;;;12.98;11.75;;;22.00;99.90;;;;;;5072844;28;20099;-54
2021/03/07 09:39:00;;;;;;;13.15;11.95;;;22.00;99.90;;;;;;5072870;28;20028;-54
2021/03/07 09:41:35;;;;;;;14.30;12.90;;;22.00;99.90;;;;;;5073069;28;20044;-53
2021/03/07 09:44:31;;;;;;;14.32;12.95;;;22.10;99.90;;;;;;5073450;28;20043;-50
2021/03/07 09:46:59;;;;;;;14.43;13.20;;;22.10;99.90;;;;;;5070035;28;20396;-53
2021/03/07 09:49:27;;;;;;;14.82;13.45;;;22.10;99.90;;;;;;5073111;28;20028;-55
2021/03/07 09:51:54;;;;;;;14.30;13.05;;;22.00;99.90;;;;;;5072745;28;20028;-52
2021/03/07 09:54:22;;;;;;;14.80;13.55;;;22.00;99.90;;;;;;5072824;28;20021;-52
2021/03/07 09:56:53;;;;;;;14.60;13.40;;;22.00;99.90;;;;;;5073143;28;20411;-54
2021/03/07 09:59:24;;;;;;;;;;;22.00;99.90;;;;;;5073506;28;20104;-56
2021/03/07 10:02:00;;;;;;;15.82;14.43;;;22.00;99.90;;;;;;5072870;28;19909;-55
2021/03/07 10:04:50;;;;;;;16.63;15.02;;;22.00;99.90;;;;;;5072773;28;20043;-55
2021/03/07 10:07:19;;;;;;;16.50;15.00;;;21.90;99.90;;;;;;5072856;28;20036;-54
2021/03/07 10:10:07;;;;;;;16.10;14.63;;;21.90;99.90;;;;;;5074525;28;20090;-48
2021/03/07 10:13:01;;;;;;;16.88;15.43;;;22.00;99.90;;;;;;5076704;28;20031;-54
2021/03/07 10:15:34;;;;;;;17.15;15.70;;;21.90;99.90;;;;;;5076384;28;20032;-54
2021/03/07 10:18:03;;;;;;;17.27;15.98;;;21.90;99.90;;;;;;5076684;28;20024;-54
2021/03/07 10:20:39;;;;;;;17.20;15.95;;;22.00;99.90;;;;;;5076590;28;20016;-52
2021/03/07 10:23:07;;;;;;;18.75;17.02;;;21.90;99.90;;;;;;5076548;28;20024;-55
2021/03/07 10:25:40;;;;;;;19.10;17.73;;;21.90;99.90;;;;;;5076520;28;20021;-52
2021/03/07 10:28:09;;;;;;;18.75;17.13;;;22.00;99.90;;;;;;5076418;28;20492;-55
2021/03/07 10:30:37;;;;;;;19.10;17.70;;;21.90;99.90;;;;;;5076828;28;20098;-58
2021/03/07 10:33:20;;;;;;;20.00;18.60;;;21.90;99.90;;;;;;5074917;28;20020;-55
2021/03/07 10:36:05;;;;;;;19.90;18.27;;;21.90;99.90;;;;;;5076349;28;20028;-51
2021/03/07 10:38:43;;;;;;;20.70;19.10;;;21.90;99.90;;;;;;5076546;28;20020;-50
2021/03/07 10:41:35;;;;;;;21.42;19.52;;;21.90;99.90;;;;;;5076410;28;20106;-56
2021/03/07 10:44:08;;;;;;;21.48;20.00;;;21.90;99.90;;;;;;5076224;28;20078;-53
2021/03/07 10:46:36;;;;;;;22.55;20.98;;;21.90;99.90;;;;;;5076161;28;20491;-54
2021/03/07 10:49:06;;;;;;;24.17;22.30;;;21.80;99.90;;;;;;5074753;28;20036;-53
2021/03/07 10:51:35;;;;;;;24.73;22.80;;;21.80;99.90;;;;;;5076256;28;20024;-52
2021/03/07 10:54:06;;;;;;;23.80;22.13;;;21.80;99.90;;;;;;5076565;28;20078;-54
2021/03/07 10:56:37;;;;;;;26.05;24.00;;;21.90;99.90;;;;;;5075812;28;20100;-54
2021/03/07 10:59:05;;;;;;;26.42;24.02;;;21.90;99.90;;;;;;5075754;28;20020;-53
2021/03/07 11:01:33;;;;;;;27.40;25.25;;;21.90;99.90;;;;;;5075756;28;20059;-55
2021/03/07 11:04:00;;;;;;;28.60;26.33;;;21.90;99.90;;;;;;5075738;28;20020;-53
2021/03/07 11:06:28;;;;;;;28.67;26.70;;;21.80;99.90;;;;;;5075707;28;20024;-57
2021/03/07 11:08:55;;;;;;;29.20;27.15;;;21.80;99.90;;;;;;5075952;28;20080;-55
2021/03/07 11:11:23;;;;;;;30.80;28.73;;;21.70;99.90;;;;;;5075450;28;20032;-54
2021/03/07 11:13:50;;;;;;;30.95;28.90;;;21.70;99.90;;;;;;5075631;28;20100;-50
2021/03/07 11:16:17;;;;;;;31.85;29.58;;;21.70;99.90;;;;;;5075478;28;20017;-53
2021/03/07 11:18:45;;;;;;;32.47;30.30;;;21.80;99.90;;;;;;5075397;28;20479;-55
2021/03/07 11:21:12;;;;;;;34.13;31.88;;;21.70;99.90;;;;;;5074993;28;20051;-52
2021/03/07 11:23:40;;;;;;;33.90;31.88;;;21.80;99.90;;;;;;5075427;28;20131;-54
2021/03/07 11:26:07;;;;;;;34.95;32.45;;;21.80;99.90;;;;;;5075649;28;20415;-54
2021/03/07 11:28:34;;;;;;;35.60;32.95;;;21.70;99.90;;;;;;5075309;28;20024;-55
2021/03/07 11:31:02;;;;;;;38.30;35.55;;;21.80;99.90;;;;;;5075143;28;20504;-53
2021/03/07 11:33:29;;;;;;;39.22;36.38;;;21.70;99.90;;;;;;5075154;28;20020;-55
2021/03/07 11:35:56;;;;;;;37.70;35.40;;;21.70;99.90;;;;;;5075448;28;20013;-56
2021/03/07 11:38:24;;;;;;;40.30;37.47;;;21.60;99.90;;;;;;5075099;28;20027;-54
2021/03/07 11:40:51;;;;;;;40.08;37.20;;;21.60;99.90;;;;;;5074922;28;20045;-55
2021/03/07 11:43:18;;;;;;;39.40;36.65;;;21.70;99.90;;;;;;5075100;28;20500;-52
2021/03/07 11:45:46;;;;;;;38.15;35.50;;;21.70;99.90;;;;;;5075089;28;20055;-55
2021/03/07 11:48:13;;;;;;;38.85;35.83;;;21.60;99.90;;;;;;5073661;28;20028;-55
2021/03/07 11:50:40;;;;;;;40.35;37.47;;;21.60;99.90;;;;;;5074856;28;20031;-55
2021/03/07 11:53:08;;;;;;;41.17;38.10;;;21.60;99.90;;;;;;5074856;28;20104;-53
2021/03/07 11:55:35;;;;;;;38.33;35.63;;;21.60;99.90;;;;;;5075096;28;20051;-54
2021/03/07 11:58:03;;;;;;;40.22;37.08;;;21.60;99.90;;;;;;5074807;28;20027;-51
2021/03/07 12:00:30;;;;;;;40.45;37.45;;;21.60;99.90;;;;;;5074899;28;20368;-51
2021/03/07 12:02:57;;;;;;;40.58;37.28;;;21.60;99.90;;;;;;5074626;28;20046;-57
2021/03/07 12:05:25;;;;;;;43.10;40.05;;;21.60;99.90;;;;;;5074617;28;20021;-56
2021/03/07 12:07:52;;;;;;;44.55;41.38;;;21.60;99.90;;;;;;5074598;28;20501;-55
2021/03/07 12:10:19;;;;;;;45.42;42.45;;;21.60;99.90;;;;;;5074654;28;20021;-57
2021/03/07 12:12:47;;;;;;;45.45;42.08;;;21.60;99.90;;;;;;5074474;28;20016;-49
2021/03/07 12:15:15;;;;;;;47.35;43.88;;;21.60;99.90;;;;;;5074518;28;20031;-52
2021/03/07 12:17:42;;;;;;;45.90;42.70;;;21.60;99.90;;;;;;5074363;28;20078;-55
2021/03/07 12:20:10;;;;;;;47.78;44.03;;;21.70;99.90;;;;;;5073062;28;20027;-53
2021/03/07 12:22:38;;;;;;;46.22;42.38;;;21.60;99.90;;;;;;5074373;28;20062;-53
2021/03/07 12:25:06;;;;;;;46.35;43.03;;;21.60;99.90;;;;;;5074204;28;20021;-56
2021/03/07 12:27:34;;;;;;;46.33;42.80;;;21.60;99.90;;;;;;5074234;28;20020;-55
2021/03/07 12:30:03;;;;;;;46.63;42.88;;;21.60;99.90;;;;;;5074181;28;20092;-53
2021/03/07 12:32:31;;;;;;;47.30;43.97;;;21.50;99.90;;;;;;5073373;28;20020;-55
2021/03/07 12:34:58;;;;;;;50.03;46.00;;;21.50;99.90;;;;;;5072782;28;20029;-53
2021/03/07 12:37:26;;;;;;;48.45;44.70;;;21.50;99.90;;;;;;5074089;28;20100;-55
2021/03/07 12:39:53;;;;;;;48.42;45.08;;;21.40;99.90;;;;;;5073976;28;20453;-57
2021/03/07 12:42:20;;;;;;;49.20;45.47;;;21.40;99.90;;;;;;5073825;28;20040;-53
2021/03/07 12:44:48;;;;;;;50.95;46.90;;;21.40;99.90;;;;;;5073871;28;20362;-53
2021/03/07 12:47:15;;;;;;;49.70;45.63;;;21.40;99.90;;;;;;5073804;28;20115;-50
2021/03/07 12:49:42;;;;;;;50.78;47.35;;;21.40;99.90;;;;;;5073656;28;20389;-54
2021/03/07 12:52:10;;;;;;;54.90;50.60;;;21.40;99.90;;;;;;5073654;28;20047;-55
2021/03/07 12:54:37;;;;;;;52.60;48.63;;;21.30;99.90;;;;;;5073747;28;20099;-56
2021/03/07 12:57:05;;;;;;;56.22;51.75;;;21.30;99.90;;;;;;5073727;28;20074;-54